createdAt,value
2024-01-25T00:01:27.662Z,7.51
2024-01-25T00:03:56.218Z,7.46
2024-01-25T00:06:23.345Z,7.43
2024-01-25T00:08:50.897Z,7.39
2024-01-25T00:11:18.757Z,7.40
2024-01-25T00:13:46.298Z,7.41
2024-01-25T00:16:13.521Z,7.42
2024-01-25T00:18:41.687Z,7.41
2024-01-25T00:21:09.357Z,7.43
2024-01-25T00:23:36.980Z,7.51
2024-01-25T00:26:04.370Z,7.51
2024-01-25T00:28:31.933Z,7.48
2024-01-25T00:30:59.534Z,7.48
2024-01-25T00:33:26.931Z,7.51
2024-01-25T00:35:54.780Z,7.54
2024-01-25T00:38:22.704Z,7.51
2024-01-25T00:40:50.442Z,7.46
2024-01-25T00:43:17.853Z,7.39
2024-01-25T00:45:45.784Z,7.34
2024-01-25T00:48:14.108Z,7.25
2024-01-25T00:50:42.041Z,7.15
2024-01-25T00:53:09.703Z,7.14
2024-01-25T00:55:37.803Z,7.11
2024-01-25T00:58:05.364Z,7.08
2024-01-25T01:00:33.177Z,7.12
2024-01-25T01:03:01.680Z,7.08
2024-01-25T01:05:29.605Z,7.04
2024-01-25T01:07:58.121Z,7.09
2024-01-25T01:10:26.721Z,7.12
2024-01-25T01:12:55.472Z,7.14
2024-01-25T01:15:23.121Z,7.13
2024-01-25T01:17:50.591Z,7.07
2024-01-25T01:20:18.085Z,7.08
2024-01-25T01:22:46.379Z,7.05
2024-01-25T01:25:13.793Z,7.05
2024-01-25T01:27:48.407Z,7.04
2024-01-25T01:30:16.235Z,7.03
2024-01-25T01:32:47.495Z,7.02
2024-01-25T01:35:14.644Z,7.08
2024-01-25T01:37:43.243Z,7.17
2024-01-25T01:40:11.234Z,7.13
2024-01-25T01:42:38.842Z,7.18
2024-01-25T01:45:07.019Z,7.20
2024-01-25T01:47:36.178Z,7.22
2024-01-25T01:50:03.682Z,7.24
2024-01-25T01:52:31.861Z,7.23
2024-01-25T01:54:59.486Z,7.25
2024-01-25T01:57:28.023Z,7.28
2024-01-25T01:59:55.796Z,7.34
2024-01-25T02:02:25.056Z,7.33
2024-01-25T02:04:53.084Z,7.38
2024-01-25T02:07:20.172Z,7.37
2024-01-25T02:09:47.734Z,7.37
2024-01-25T02:12:18.376Z,7.42
2024-01-25T02:14:46.608Z,7.43
2024-01-25T02:17:14.561Z,7.52
2024-01-25T02:19:42.073Z,7.58
2024-01-25T02:22:09.473Z,7.50
2024-01-25T02:24:37.685Z,7.53
2024-01-25T02:27:06.190Z,7.51
2024-01-25T02:29:36.490Z,7.51
2024-01-25T02:32:04.732Z,7.49
2024-01-25T02:34:32.074Z,7.44
2024-01-25T02:36:59.662Z,7.40
2024-01-25T02:39:26.794Z,7.43
2024-01-25T02:41:54.591Z,7.44
2024-01-25T02:44:21.554Z,7.45
2024-01-25T02:46:49.092Z,7.45
2024-01-25T02:49:17.206Z,7.40
2024-01-25T02:51:44.554Z,7.43
2024-01-25T02:54:11.627Z,7.49
2024-01-25T02:56:38.978Z,7.45
2024-01-25T02:59:05.997Z,7.46
2024-01-25T03:01:46.104Z,7.43
2024-01-25T03:04:14.826Z,7.42
2024-01-25T03:06:42.169Z,7.45
2024-01-25T03:09:09.299Z,7.40
2024-01-25T03:11:36.592Z,7.40
2024-01-25T03:14:03.620Z,7.44
2024-01-25T03:16:31.424Z,7.41
2024-01-25T03:18:58.915Z,7.37
2024-01-25T03:21:26.495Z,7.31
2024-01-25T03:23:53.549Z,7.24
2024-01-25T03:26:20.824Z,7.23
2024-01-25T03:28:48.504Z,7.18
2024-01-25T03:31:16.533Z,7.08
2024-01-25T03:33:44.100Z,7.07
2024-01-25T03:36:14.976Z,7.08
2024-01-25T03:38:42.821Z,7.08
2024-01-25T03:41:10.462Z,7.10
2024-01-25T03:43:43.035Z,7.11
2024-01-25T03:46:14.492Z,7.12
2024-01-25T03:48:41.936Z,7.12
2024-01-25T03:51:09.213Z,7.12
2024-01-25T03:53:36.819Z,7.16
2024-01-25T03:56:05.050Z,7.13
2024-01-25T03:58:32.259Z,7.11
2024-01-25T04:01:00.089Z,7.12
2024-01-25T04:03:27.574Z,7.09
2024-01-25T04:05:54.678Z,7.09
2024-01-25T04:08:21.771Z,7.10
2024-01-25T04:10:49.008Z,7.06
2024-01-25T04:13:19.426Z,7.10
2024-01-25T04:15:47.934Z,7.13
2024-01-25T04:18:16.884Z,7.14
2024-01-25T04:20:45.067Z,7.17
2024-01-25T04:23:12.274Z,7.18
2024-01-25T04:25:39.637Z,7.21
2024-01-25T04:28:06.837Z,7.27
2024-01-25T04:30:34.134Z,7.27
2024-01-25T04:33:01.752Z,7.28
2024-01-25T04:35:29.069Z,7.28
2024-01-25T04:37:56.177Z,7.33
2024-01-25T04:40:23.753Z,7.36
2024-01-25T04:42:50.937Z,7.42
2024-01-25T04:45:18.056Z,7.40
2024-01-25T04:47:45.335Z,7.39
2024-01-25T04:50:12.530Z,7.39
2024-01-25T04:52:39.610Z,7.41
2024-01-25T04:55:07.108Z,7.40
2024-01-25T04:57:36.352Z,7.43
2024-01-25T05:00:05.588Z,7.41
2024-01-25T05:02:34.876Z,7.41
2024-01-25T05:05:02.107Z,7.52
2024-01-25T05:07:33.338Z,7.55
2024-01-25T05:10:01.013Z,7.58
2024-01-25T05:12:30.408Z,7.55
2024-01-25T05:14:57.463Z,7.52
2024-01-25T05:17:25.538Z,7.47
2024-01-25T05:19:57.101Z,7.43
2024-01-25T05:22:24.529Z,7.42
2024-01-25T05:24:54.304Z,7.45
2024-01-25T05:27:21.347Z,7.43
2024-01-25T05:29:49.316Z,7.46
2024-01-25T05:32:16.291Z,7.43
2024-01-25T05:34:44.031Z,7.46
2024-01-25T05:37:13.938Z,7.42
2024-01-25T05:39:43.925Z,7.39
2024-01-25T05:42:11.790Z,7.41
2024-01-25T05:44:38.805Z,7.42
2024-01-25T05:47:06.241Z,7.39
2024-01-25T05:49:33.779Z,7.36
2024-01-25T05:52:06.774Z,7.33
2024-01-25T05:54:36.990Z,7.29
2024-01-25T05:57:05.145Z,7.29
2024-01-25T05:59:34.806Z,7.26
2024-01-25T06:02:05.550Z,7.27
2024-01-25T06:04:33.703Z,7.27
2024-01-25T06:07:03.747Z,7.31
2024-01-25T06:09:34.212Z,7.29
2024-01-25T06:12:02.014Z,7.30
2024-01-25T06:14:29.619Z,7.30
2024-01-25T06:16:57.686Z,7.27
2024-01-25T06:19:25.044Z,7.31
2024-01-25T06:21:52.912Z,7.31
2024-01-25T06:24:20.375Z,7.35
2024-01-25T06:26:47.608Z,7.35
2024-01-25T06:29:15.544Z,7.33
2024-01-25T06:31:44.914Z,7.41
2024-01-25T06:34:15.203Z,7.43
2024-01-25T06:36:51.993Z,7.52
2024-01-25T06:39:19.624Z,7.62
2024-01-25T06:41:46.635Z,7.68
2024-01-25T06:44:14.110Z,7.73
2024-01-25T06:46:41.433Z,7.76
2024-01-25T06:49:09.070Z,7.82
2024-01-25T06:51:37.791Z,7.89
2024-01-25T06:54:05.198Z,7.94
2024-01-25T06:56:32.706Z,7.99
2024-01-25T06:58:59.839Z,8.06
2024-01-25T07:01:29.376Z,8.07
2024-01-25T07:03:56.974Z,8.10
2024-01-25T07:06:25.064Z,8.14
2024-01-25T07:08:54.537Z,8.17
2024-01-25T07:11:22.200Z,8.16
2024-01-25T07:13:49.275Z,8.17
2024-01-25T07:16:20.647Z,8.14
2024-01-25T07:18:48.403Z,8.14
2024-01-25T07:21:16.184Z,8.13
2024-01-25T07:23:46.837Z,8.08
2024-01-25T07:26:20.146Z,8.07
2024-01-25T07:28:47.995Z,8.11
2024-01-25T07:31:16.927Z,8.13
2024-01-25T07:33:44.214Z,8.11
2024-01-25T07:36:12.080Z,8.12
2024-01-25T07:38:39.256Z,8.16
2024-01-25T07:41:06.625Z,8.11
2024-01-25T07:43:34.479Z,8.14
2024-01-25T07:46:01.765Z,8.18
2024-01-25T07:48:29.420Z,8.20
2024-01-25T07:51:12.767Z,8.26
2024-01-25T07:53:43.803Z,8.31
2024-01-25T07:56:12.087Z,8.38
2024-01-25T07:58:42.122Z,8.42
2024-01-25T08:01:10.746Z,8.50
2024-01-25T08:03:41.237Z,8.51
2024-01-25T08:06:08.993Z,8.58
2024-01-25T08:08:36.483Z,8.61
2024-01-25T08:11:05.426Z,8.63
2024-01-25T08:13:35.635Z,8.66
2024-01-25T08:16:03.559Z,8.69
2024-01-25T08:18:32.431Z,8.80
2024-01-25T08:21:01.970Z,8.85
2024-01-25T08:23:29.611Z,8.90
2024-01-25T08:25:56.564Z,8.94
2024-01-25T08:28:23.872Z,9.01
2024-01-25T08:30:51.472Z,9.02
2024-01-25T08:33:18.573Z,8.98
2024-01-25T08:35:48.454Z,9.04
2024-01-25T08:38:19.476Z,9.13
2024-01-25T08:40:47.162Z,9.19
2024-01-25T08:43:14.202Z,9.24
2024-01-25T08:45:41.490Z,9.22
2024-01-25T08:48:10.192Z,9.28
2024-01-25T08:50:38.145Z,9.33
2024-01-25T08:53:06.334Z,9.36
2024-01-25T08:55:33.813Z,9.33
2024-01-25T08:58:01.191Z,9.35
2024-01-25T09:00:28.872Z,9.37
2024-01-25T09:02:56.381Z,9.39
2024-01-25T09:05:23.625Z,9.45
2024-01-25T09:07:53.162Z,9.46
2024-01-25T09:10:20.358Z,9.52
2024-01-25T09:12:47.389Z,9.49
2024-01-25T09:15:14.847Z,9.59
2024-01-25T09:17:46.543Z,9.63
2024-01-25T09:20:17.215Z,9.64
2024-01-25T09:22:47.328Z,9.71
2024-01-25T09:25:14.531Z,9.72
2024-01-25T09:27:42.154Z,9.77
2024-01-25T09:30:11.072Z,9.84
2024-01-25T09:32:38.324Z,9.77
2024-01-25T09:35:06.713Z,9.77
2024-01-25T09:37:34.691Z,9.79
2024-01-25T09:40:04.346Z,9.74
2024-01-25T09:42:31.656Z,9.70
2024-01-25T09:44:59.805Z,9.81
2024-01-25T09:47:29.488Z,9.81
2024-01-25T09:49:56.801Z,9.94
2024-01-25T09:52:27.454Z,9.89
2024-01-25T09:54:56.330Z,9.90
2024-01-25T09:57:25.771Z,9.80
2024-01-25T09:59:55.074Z,9.91
2024-01-25T10:02:22.915Z,9.92
2024-01-25T10:04:55.279Z,9.97
2024-01-25T10:07:43.147Z,9.95
2024-01-25T10:10:11.831Z,10.07
2024-01-25T10:12:42.470Z,10.13
2024-01-25T10:15:12.482Z,10.17
2024-01-25T10:20:15.846Z,10.16
2024-01-25T10:22:45.556Z,10.23
2024-01-25T10:25:15.087Z,10.18
2024-01-25T10:27:43.566Z,10.03
2024-01-25T10:30:12.039Z,9.98
2024-01-25T10:32:40.735Z,9.85
2024-01-25T10:35:09.756Z,9.77
2024-01-25T10:37:40.080Z,9.80
2024-01-25T10:40:11.081Z,9.87
2024-01-25T10:42:42.791Z,9.78
2024-01-25T10:45:10.745Z,9.76
2024-01-25T10:47:42.179Z,9.71
2024-01-25T10:50:19.039Z,9.57
2024-01-25T10:52:47.523Z,9.50
2024-01-25T10:55:17.769Z,9.47
2024-01-25T10:57:46.625Z,9.50
2024-01-25T11:00:17.511Z,9.50
2024-01-25T11:02:46.995Z,9.47
2024-01-25T11:05:20.168Z,9.41
2024-01-25T11:07:49.730Z,9.56
2024-01-25T11:10:22.508Z,9.52
2024-01-25T11:12:56.269Z,9.50
2024-01-25T11:15:31.100Z,9.59
2024-01-25T11:18:00.090Z,9.78
2024-01-25T11:20:29.183Z,9.72
2024-01-25T11:23:02.494Z,9.74
2024-01-25T11:25:31.815Z,9.88
2024-01-25T11:28:00.444Z,9.96
2024-01-25T11:30:29.852Z,10.00
2024-01-25T11:32:57.678Z,9.86
2024-01-25T11:35:26.681Z,9.70
2024-01-25T11:37:56.684Z,9.59
2024-01-25T11:40:24.046Z,9.68
2024-01-25T11:42:51.435Z,9.69
2024-01-25T11:45:18.698Z,9.74
2024-01-25T11:47:46.662Z,9.49
2024-01-25T11:50:14.899Z,9.61
2024-01-25T11:52:42.656Z,9.53
2024-01-25T11:55:14.084Z,9.64
2024-01-25T11:57:42.774Z,9.58
2024-01-25T12:00:14.838Z,9.67
2024-01-25T12:02:43.434Z,9.57
2024-01-25T12:05:11.914Z,9.40
2024-01-25T12:07:40.892Z,9.34
2024-01-25T12:10:11.806Z,9.33
2024-01-25T12:12:40.267Z,9.38
2024-01-25T12:15:11.263Z,9.35
2024-01-25T12:17:43.812Z,9.31
2024-01-25T12:20:13.172Z,9.26
2024-01-25T12:22:41.480Z,9.39
2024-01-25T12:25:13.823Z,9.44
2024-01-25T12:27:47.763Z,9.39
2024-01-25T12:30:15.044Z,9.36
2024-01-25T12:32:42.379Z,9.47
2024-01-25T12:35:10.347Z,9.57
2024-01-25T12:37:39.473Z,9.57
2024-01-25T12:40:09.992Z,9.57
2024-01-25T12:42:37.828Z,9.63
2024-01-25T12:45:05.901Z,9.74
2024-01-25T12:47:35.306Z,9.73
2024-01-25T12:50:04.221Z,9.69
2024-01-25T12:52:32.109Z,9.61
2024-01-25T12:55:04.134Z,9.65
2024-01-25T12:57:32.425Z,9.66
2024-01-25T13:00:00.574Z,9.67
2024-01-25T13:02:29.493Z,9.68
2024-01-25T13:04:56.808Z,9.62
2024-01-25T13:07:25.353Z,9.64
2024-01-25T13:09:54.049Z,9.65
2024-01-25T13:12:22.028Z,9.67
2024-01-25T13:14:49.309Z,9.71
2024-01-25T13:17:16.353Z,9.67
2024-01-25T13:19:44.111Z,9.65
2024-01-25T13:22:11.508Z,9.68
2024-01-25T13:24:44.850Z,9.68
2024-01-25T13:27:15.019Z,9.62
2024-01-25T13:29:42.219Z,9.52
2024-01-25T13:32:10.162Z,9.57
2024-01-25T13:34:37.979Z,9.54
2024-01-25T13:37:05.244Z,9.47
2024-01-25T13:39:34.131Z,9.45
2024-01-25T13:42:02.196Z,9.46
2024-01-25T13:44:29.199Z,9.39
2024-01-25T13:46:57.067Z,9.42
2024-01-25T13:49:24.512Z,9.44
2024-01-25T13:51:51.669Z,9.35
2024-01-25T13:54:19.267Z,9.38
2024-01-25T13:56:46.646Z,9.35
2024-01-25T13:59:13.656Z,9.33
2024-01-25T14:01:45.911Z,9.38
2024-01-25T14:04:13.747Z,9.31
2024-01-25T14:06:40.973Z,9.18
2024-01-25T14:09:08.194Z,9.17
2024-01-25T14:11:36.811Z,9.21
2024-01-25T14:14:03.904Z,9.14
2024-01-25T14:16:33.200Z,9.14
2024-01-25T14:19:00.709Z,9.14
2024-01-25T14:21:28.025Z,9.17
2024-01-25T14:23:57.135Z,9.12
2024-01-25T14:26:24.487Z,9.09
2024-01-25T14:28:51.569Z,9.13
2024-01-25T14:31:20.303Z,9.06
2024-01-25T14:33:47.862Z,9.13
2024-01-25T14:36:15.535Z,9.12
2024-01-25T14:38:42.861Z,9.12
2024-01-25T14:41:11.589Z,9.12
2024-01-25T14:43:40.102Z,9.11
2024-01-25T14:46:08.830Z,9.08
2024-01-25T14:48:36.528Z,9.07
2024-01-25T14:51:03.697Z,9.13
2024-01-25T14:53:31.324Z,9.07
2024-01-25T14:55:58.580Z,9.06
2024-01-25T14:58:25.696Z,8.95
2024-01-25T15:00:53.201Z,8.89
2024-01-25T15:03:21.010Z,8.82
2024-01-25T15:05:48.270Z,8.79
2024-01-25T15:08:15.917Z,8.78
2024-01-25T15:10:43.763Z,8.76
2024-01-25T15:13:12.149Z,8.70
2024-01-25T15:15:39.740Z,8.61
2024-01-25T15:18:07.650Z,8.60
2024-01-25T15:20:37.031Z,8.63
2024-01-25T15:23:04.621Z,8.58
2024-01-25T15:25:31.940Z,8.54
2024-01-25T15:27:59.076Z,8.48
2024-01-25T15:30:26.331Z,8.51
2024-01-25T15:32:53.734Z,8.50
2024-01-25T15:35:27.646Z,8.44
2024-01-25T15:37:55.507Z,8.51
2024-01-25T15:40:23.260Z,8.47
2024-01-25T15:42:53.293Z,8.46
2024-01-25T15:45:21.981Z,8.40
2024-01-25T15:47:49.473Z,8.43
2024-01-25T15:50:20.167Z,8.40
2024-01-25T15:52:48.661Z,8.36
2024-01-25T15:55:15.782Z,8.30
2024-01-25T15:57:42.909Z,8.28
2024-01-25T16:00:13.223Z,8.30
2024-01-25T16:02:40.536Z,8.28
2024-01-25T16:05:07.893Z,8.21
2024-01-25T16:07:34.963Z,8.23
2024-01-25T16:10:04.413Z,8.23
2024-01-25T16:12:31.690Z,8.20
2024-01-25T16:14:59.899Z,8.12
2024-01-25T16:17:27.351Z,8.09
2024-01-25T16:19:54.712Z,8.13
2024-01-25T16:22:21.769Z,8.18
2024-01-25T16:24:49.542Z,8.14
2024-01-25T16:27:16.733Z,8.10
2024-01-25T16:29:43.936Z,8.07
2024-01-25T16:32:11.740Z,8.09
2024-01-25T16:34:38.881Z,8.05
2024-01-25T16:37:06.445Z,8.07
2024-01-25T16:39:34.190Z,8.04
2024-01-25T16:42:01.434Z,8.00
2024-01-25T16:44:28.502Z,7.99
2024-01-25T16:46:58.236Z,8.00
2024-01-25T16:49:25.493Z,7.96
2024-01-25T16:51:52.721Z,7.84
2024-01-25T16:54:20.506Z,7.82
2024-01-25T16:56:49.686Z,7.81
2024-01-25T16:59:18.710Z,7.82
2024-01-25T17:01:46.111Z,7.86
2024-01-25T17:04:13.896Z,7.87
2024-01-25T17:06:42.820Z,7.85
2024-01-25T17:09:10.558Z,7.79
2024-01-25T17:11:39.128Z,7.83
2024-01-25T17:14:06.488Z,7.82
2024-01-25T17:16:33.836Z,7.78
2024-01-25T17:19:01.110Z,7.82
2024-01-25T17:21:28.904Z,7.85
2024-01-25T17:23:58.219Z,7.89
2024-01-25T17:26:25.572Z,7.86
2024-01-25T17:28:54.686Z,7.82
2024-01-25T17:31:25.870Z,7.80
2024-01-25T17:33:52.941Z,7.82
2024-01-25T17:36:20.058Z,7.79
2024-01-25T17:38:47.660Z,7.72
2024-01-25T17:41:14.694Z,7.69
2024-01-25T17:43:43.349Z,7.70
2024-01-25T17:46:10.954Z,7.78
2024-01-25T17:48:43.478Z,7.74
2024-01-25T17:51:10.845Z,7.71
2024-01-25T17:53:37.860Z,7.70
2024-01-25T17:56:06.163Z,7.75
2024-01-25T17:58:34.621Z,7.81
2024-01-25T18:01:01.737Z,7.80
2024-01-25T18:03:29.490Z,7.78
2024-01-25T18:05:56.520Z,7.78
2024-01-25T18:08:23.831Z,7.79
2024-01-25T18:10:56.314Z,7.70
2024-01-25T18:13:24.346Z,7.62
2024-01-25T18:15:53.612Z,7.67
2024-01-25T18:18:20.813Z,7.75
2024-01-25T18:20:49.525Z,7.80
2024-01-25T18:23:16.818Z,7.82
2024-01-25T18:25:43.857Z,7.85
2024-01-25T18:28:11.778Z,7.74
2024-01-25T18:30:40.272Z,7.70
2024-01-25T18:33:09.131Z,7.76
2024-01-25T18:35:36.190Z,7.79
2024-01-25T18:38:03.580Z,7.77
2024-01-25T18:40:30.662Z,7.80
2024-01-25T18:42:57.738Z,7.82
2024-01-25T18:45:25.237Z,7.83
2024-01-25T18:47:52.365Z,7.73
2024-01-25T18:50:19.836Z,7.82
2024-01-25T18:52:47.191Z,7.88
2024-01-25T18:55:14.915Z,7.85
2024-01-25T18:57:42.215Z,7.79
2024-01-25T19:00:10.280Z,7.89
2024-01-25T19:02:37.920Z,7.90
2024-01-25T19:05:06.106Z,7.86
2024-01-25T19:07:38.561Z,7.85
2024-01-25T19:10:08.270Z,7.86
2024-01-25T19:12:38.930Z,7.88
2024-01-25T19:15:09.707Z,7.90
2024-01-25T19:17:52.036Z,7.91
2024-01-25T19:20:19.708Z,7.91
2024-01-25T19:22:48.460Z,7.66
2024-01-25T19:25:16.397Z,7.63
2024-01-25T19:27:44.411Z,7.62
2024-01-25T19:30:12.819Z,7.62
2024-01-25T19:32:41.618Z,7.62
2024-01-25T19:35:08.946Z,7.54
2024-01-25T19:37:36.308Z,7.46
2024-01-25T19:40:03.956Z,7.48
2024-01-25T19:42:31.384Z,7.44
2024-01-25T19:44:59.152Z,7.41
2024-01-25T19:47:26.958Z,7.42
2024-01-25T19:49:54.282Z,7.42
2024-01-25T19:52:22.203Z,7.39
2024-01-25T19:54:49.416Z,7.40
2024-01-25T19:57:17.229Z,7.41
2024-01-25T19:59:45.819Z,7.45
2024-01-25T20:02:13.184Z,7.45
2024-01-25T20:04:41.353Z,7.43
2024-01-25T20:07:09.209Z,7.39
2024-01-25T20:09:36.477Z,7.42
2024-01-25T20:12:04.592Z,7.37
2024-01-25T20:14:33.066Z,7.37
2024-01-25T20:17:05.663Z,7.35
2024-01-25T20:19:33.175Z,7.35
2024-01-25T20:22:01.626Z,7.38
2024-01-25T20:24:29.241Z,7.43
2024-01-25T20:26:58.793Z,7.39
2024-01-25T20:29:25.832Z,7.41
2024-01-25T20:31:53.587Z,7.38
2024-01-25T20:34:20.974Z,7.41
2024-01-25T20:36:48.155Z,7.39
2024-01-25T20:39:15.721Z,7.39
2024-01-25T20:41:45.955Z,7.24
2024-01-25T20:44:12.977Z,7.29
2024-01-25T20:46:40.090Z,7.30
2024-01-25T20:49:10.536Z,7.34
2024-01-25T20:51:38.044Z,7.37
2024-01-25T20:54:05.405Z,7.32
2024-01-25T20:56:32.855Z,7.27
2024-01-25T20:59:00.084Z,7.19
2024-01-25T21:01:28.410Z,7.23
2024-01-25T21:03:56.089Z,7.22
2024-01-25T21:06:24.024Z,7.18
2024-01-25T21:08:51.254Z,7.23
2024-01-25T21:11:18.925Z,7.25
2024-01-25T21:13:49.655Z,7.23
2024-01-25T21:16:17.722Z,7.22
2024-01-25T21:18:45.057Z,7.25
2024-01-25T21:21:16.430Z,7.27
2024-01-25T21:23:44.278Z,7.21
2024-01-25T21:26:14.995Z,7.19
2024-01-25T21:28:42.367Z,7.19
2024-01-25T21:31:10.626Z,7.20
2024-01-25T21:33:38.082Z,7.17
2024-01-25T21:36:05.674Z,7.16
2024-01-25T21:38:34.063Z,7.09
2024-01-25T21:41:01.349Z,7.03
2024-01-25T21:43:28.944Z,6.92
2024-01-25T21:45:56.556Z,6.90
2024-01-25T21:48:24.155Z,6.93
2024-01-25T21:50:51.272Z,6.91
2024-01-25T21:53:18.886Z,6.93
2024-01-25T21:55:46.815Z,6.84
2024-01-25T21:58:14.297Z,6.79
2024-01-25T22:00:42.867Z,6.82
2024-01-25T22:03:10.568Z,6.80
2024-01-25T22:05:38.254Z,6.76
2024-01-25T22:08:06.038Z,6.95
2024-01-25T22:10:33.330Z,6.90
2024-01-25T22:13:00.761Z,6.93
2024-01-25T22:15:28.433Z,6.94
2024-01-25T22:17:55.843Z,6.98
2024-01-25T22:20:23.023Z,7.02
2024-01-25T22:22:52.319Z,7.01
2024-01-25T22:25:21.225Z,6.86
2024-01-25T22:27:48.347Z,6.77
2024-01-25T22:30:18.988Z,6.62
2024-01-25T22:32:47.488Z,6.51
2024-01-25T22:35:15.237Z,6.53
2024-01-25T22:37:42.335Z,6.62
2024-01-25T22:40:14.204Z,6.65
2024-01-25T22:42:41.223Z,6.42
2024-01-25T22:45:09.337Z,6.14
2024-01-25T22:47:37.140Z,6.32
2024-01-25T22:50:04.792Z,6.64
2024-01-25T22:52:31.905Z,6.77
2024-01-25T22:54:59.384Z,7.01
2024-01-25T22:57:28.440Z,7.13
2024-01-25T22:59:55.927Z,7.02
2024-01-25T23:02:23.552Z,7.07
2024-01-25T23:04:51.110Z,6.97
2024-01-25T23:07:18.885Z,6.87
2024-01-25T23:09:46.409Z,7.00
2024-01-25T23:12:14.087Z,7.08
2024-01-25T23:14:44.464Z,7.14
2024-01-25T23:17:12.095Z,6.93
2024-01-25T23:19:39.713Z,6.48
2024-01-25T23:22:08.375Z,6.25
2024-01-25T23:24:37.488Z,6.13
2024-01-25T23:27:04.809Z,6.06
2024-01-25T23:29:32.946Z,6.03
2024-01-25T23:32:02.116Z,5.83
2024-01-25T23:34:29.225Z,5.71
2024-01-25T23:36:56.329Z,5.63
2024-01-25T23:39:23.728Z,5.59
2024-01-25T23:41:50.823Z,5.52
2024-01-25T23:44:19.232Z,5.55
2024-01-25T23:46:46.778Z,5.57
2024-01-25T23:49:16.943Z,5.53
2024-01-25T23:51:44.867Z,5.36
2024-01-25T23:54:13.628Z,5.19
2024-01-25T23:56:42.574Z,5.12
2024-01-25T23:59:11.384Z,5.06
